Time;durP1;ratioP1;P1;durP2;ratioP2;P2;SDS_P1;SDS_P2;PMS_P1;PMS_P2;Temp;Humidity;BMP_temperature;BMP_pressure;BME280_temperature;BME280_humidity;BME280_pressure;Samples;Min_cycle;Max_cycle;Signal;HPM_P1;HPM_P2
2023/07/22 00:02:25;;;;;;;2.20;1.40;;;;;;;17.26;71.88;98574.96;105677;1253;73831;-23
2023/07/22 00:04:52;;;;;;;2.90;1.40;;;;;;;17.03;72.08;98576.06;105711;1253;74868;-23
2023/07/22 00:07:19;;;;;;;2.60;1.60;;;;;;;16.83;72.77;98575.36;105636;1253;73223;-23
2023/07/22 00:09:46;;;;;;;3.20;1.60;;;;;;;16.66;73.34;98573.59;105465;1253;61050;-23
2023/07/22 00:12:13;;;;;;;1.30;1.00;;;;;;;16.54;73.60;98575.33;105506;1257;61152;-23
2023/07/22 00:14:42;;;;;;;1.80;1.00;;;;;;;17.01;73.59;98569.14;105524;1253;73623;-23
2023/07/22 00:17:09;;;;;;;1.40;1.00;;;;;;;17.56;71.91;98566.26;105626;1253;74316;-23
2023/07/22 00:19:36;;;;;;;5.80;1.20;;;;;;;17.64;70.65;98563.70;105562;1253;72540;-23
2023/07/22 00:22:04;;;;;;;1.80;1.40;;;;;;;17.47;70.74;98556.71;105536;1253;61077;-23
2023/07/22 00:24:31;;;;;;;1.40;1.30;;;;;;;17.27;71.09;98559.80;105647;1258;61115;-24
2023/07/22 00:26:58;;;;;;;3.20;1.70;;;;;;;17.09;71.56;98559.77;105603;1253;73802;-23
2023/07/22 00:29:26;;;;;;;3.00;1.40;;;;;;;16.91;72.07;98558.42;105668;1253;74341;-23
2023/07/22 00:31:53;;;;;;;1.70;1.60;;;;;;;16.74;72.29;98555.94;105682;1253;72618;-22
2023/07/22 00:34:20;;;;;;;2.40;1.80;;;;;;;16.63;73.01;98556.88;105547;1255;61962;-22
2023/07/22 00:36:47;;;;;;;2.10;1.60;;;;;;;17.10;73.40;98552.38;105626;1258;62009;-22
2023/07/22 00:39:15;;;;;;;3.40;2.40;;;;;;;17.67;72.05;98546.44;105620;1258;73793;-23
2023/07/22 00:41:44;;;;;;;3.20;2.80;;;;;;;17.79;71.48;98543.14;105604;1253;74791;-23
2023/07/22 00:44:12;;;;;;;2.50;1.90;;;;;;;17.69;71.59;98545.77;105570;1253;72339;-22
2023/07/22 00:46:39;;;;;;;2.20;1.90;;;;;;;17.49;71.81;98548.08;105429;1254;61161;-22
2023/07/22 00:49:07;;;;;;;2.50;1.80;;;;;;;17.28;72.19;98545.97;105654;1258;61097;-22
2023/07/22 00:51:34;;;;;;;6.10;2.00;;;;;;;17.09;72.84;98547.12;105744;1253;73720;-23
2023/07/22 00:54:03;;;;;;;3.20;1.30;;;;;;;16.94;73.60;98549.20;105699;1254;74322;-22
2023/07/22 00:56:33;;;;;;;4.90;1.30;;;;;;;17.36;73.82;98546.96;105657;1254;72799;-23
2023/07/22 00:59:00;;;;;;;4.40;1.60;;;;;;;17.88;71.93;98542.27;105667;1254;61130;-23
2023/07/22 01:01:27;;;;;;;6.90;3.40;;;;;;;17.95;70.77;98541.77;105641;1254;61187;-22
2023/07/22 01:03:55;;;;;;;8.70;3.60;;;;;;;17.80;71.07;98540.92;105683;1253;73830;-22
2023/07/22 01:06:22;;;;;;;9.80;6.30;;;;;;;17.60;70.93;98537.77;105691;1254;74312;-22
2023/07/22 01:08:49;;;;;;;10.10;6.40;;;;;;;17.39;70.48;98533.66;105464;1253;73165;-23
2023/07/22 01:11:16;;;;;;;10.70;5.70;;;;;;;17.20;70.61;98532.94;105550;1254;61102;-22
2023/07/22 01:13:43;;;;;;;8.10;4.90;;;;;;;17.05;71.20;98534.27;105710;1256;61059;-22
2023/07/22 01:16:13;;;;;;;8.80;5.60;;;;;;;16.90;71.65;98535.10;105572;1253;73790;-22
2023/07/22 01:18:41;;;;;;;5.70;4.10;;;;;;;16.81;72.25;98532.94;105445;1253;74857;-23
2023/07/22 01:21:08;;;;;;;7.70;5.80;;;;;;;17.35;72.20;98532.30;105638;1253;73205;-23
2023/07/22 01:23:36;;;;;;;9.30;5.80;;;;;;;17.95;70.49;98523.52;105694;1253;61216;-22
2023/07/22 01:26:02;;;;;;;5.60;4.20;;;;;;;18.07;69.28;98514.89;105685;1258;61186;-23
2023/07/22 01:28:35;;;;;;;5.30;4.00;;;;;;;17.96;69.42;98513.53;105625;1253;73737;-23
2023/07/22 01:31:02;;;;;;;4.90;3.00;;;;;;;17.77;69.73;98506.83;105605;1253;74319;-23
2023/07/22 01:33:29;;;;;;;4.90;2.20;;;;;;;17.57;70.46;98505.46;105675;1253;72649;-23
2023/07/22 01:35:57;;;;;;;4.00;1.70;;;;;;;17.38;70.67;98503.80;105603;1253;61077;-22
2023/07/22 01:38:24;;;;;;;3.40;1.80;;;;;;;17.19;71.05;98503.51;105632;1257;61108;-22
2023/07/22 01:40:51;;;;;;;1.80;1.60;;;;;;;17.02;71.53;98508.48;105696;1253;73779;-22
2023/07/22 01:43:18;;;;;;;3.40;1.20;;;;;;;16.91;72.46;98511.52;105451;1257;73293;-22
2023/07/22 01:45:45;;;;;;;1.80;1.30;;;;;;;17.38;71.94;98516.30;105390;1254;72636;-23
2023/07/22 01:48:13;;;;;;;1.30;1.10;;;;;;;17.93;70.24;98519.73;105526;1253;61173;-23
2023/07/22 01:50:39;;;;;;;1.30;1.00;;;;;;;18.03;69.75;98521.35;105377;1254;61106;-23
2023/07/22 01:53:07;;;;;;;3.50;1.60;;;;;;;17.88;69.65;98520.51;105585;1253;73879;-22
2023/07/22 01:55:34;;;;;;;4.60;2.00;;;;;;;17.67;70.01;98520.15;105676;1254;74100;-23
2023/07/22 01:58:02;;;;;;;2.40;1.20;;;;;;;17.46;70.39;98518.60;105632;1253;73103;-23
2023/07/22 02:00:28;;;;;;;2.00;1.10;;;;;;;17.26;70.79;98519.42;105443;1253;61172;-22
2023/07/22 02:02:56;;;;;;;2.90;1.50;;;;;;;17.08;71.07;98517.07;105450;1257;61110;-23
2023/07/22 02:05:24;;;;;;;2.90;1.60;;;;;;;16.94;71.41;98514.83;105543;1253;73751;-22
2023/07/22 02:07:51;;;;;;;2.10;1.00;;;;;;;16.84;72.09;98516.52;105637;1253;74807;-22
2023/07/22 02:10:18;;;;;;;1.40;1.10;;;;;;;17.33;72.00;98520.41;105617;1253;72594;-22
2023/07/22 02:12:46;;;;;;;4.30;1.10;;;;;;;17.90;70.32;98530.74;105605;1254;61051;-23
2023/07/22 02:15:13;;;;;;;2.00;1.20;;;;;;;17.93;69.00;98537.35;105539;1258;61138;-23
2023/07/22 02:17:41;;;;;;;1.70;1.30;;;;;;;17.76;69.11;98534.03;105634;1253;73966;-22
2023/07/22 02:20:09;;;;;;;2.10;1.30;;;;;;;17.55;69.86;98529.77;105531;1253;74406;-22
2023/07/22 02:22:37;;;;;;;1.70;1.20;;;;;;;17.36;70.45;98532.55;105647;1256;72525;-23
2023/07/22 02:25:04;;;;;;;1.00;0.90;;;;;;;17.15;71.20;98535.02;105661;1253;61047;-23
2023/07/22 02:27:32;;;;;;;1.70;1.30;;;;;;;16.96;71.63;98537.73;105491;1258;61086;-23
2023/07/22 02:29:59;;;;;;;2.60;1.30;;;;;;;16.83;72.33;98541.63;105641;1253;72957;-23
2023/07/22 02:32:26;;;;;;;3.10;1.10;;;;;;;17.28;72.44;98530.58;105500;1253;74145;-22
2023/07/22 02:34:53;;;;;;;2.50;1.40;;;;;;;17.82;70.98;98532.19;105646;1253;72541;-23
2023/07/22 02:37:21;;;;;;;1.70;1.10;;;;;;;17.90;69.87;98532.85;105403;1253;61237;-23
2023/07/22 02:39:48;;;;;;;3.40;1.20;;;;;;;17.76;69.67;98531.91;105511;1258;61107;-22
2023/07/22 02:42:15;;;;;;;2.10;1.40;;;;;;;17.55;69.99;98535.27;105485;1253;73833;-23
2023/07/22 02:44:42;;;;;;;1.60;1.20;;;;;;;17.36;70.71;98540.85;105494;1253;74235;-23
2023/07/22 02:47:09;;;;;;;2.40;1.30;;;;;;;17.18;71.36;98545.02;105600;1253;72579;-23
2023/07/22 02:49:36;;;;;;;2.60;1.30;;;;;;;17.01;71.75;98547.21;105457;1256;61589;-22
2023/07/22 02:52:03;;;;;;;1.70;1.10;;;;;;;16.85;72.69;98548.48;105440;1257;61168;-23
2023/07/22 02:54:30;;;;;;;2.50;1.40;;;;;;;17.09;72.37;98549.25;105471;1253;73844;-23
2023/07/22 02:56:57;;;;;;;6.50;1.80;;;;;;;17.35;72.63;98548.98;105575;1256;73131;-23
2023/07/22 02:59:24;;;;;;;4.40;1.40;;;;;;;17.21;73.22;98543.40;105632;1253;72675;-23
2023/07/22 03:01:52;;;;;;;2.90;1.60;;;;;;;17.02;74.07;98545.27;105627;1253;61054;-21
2023/07/22 03:04:19;;;;;;;2.00;1.60;;;;;;;16.79;75.35;98546.83;105637;1253;61135;-22
2023/07/22 03:06:46;;;;;;;4.30;1.70;;;;;;;16.58;76.62;98543.98;105646;1253;74255;-25
2023/07/22 03:09:13;;;;;;;3.70;1.50;;;;;;;16.89;76.39;98544.31;105690;1253;72528;-26
2023/07/22 03:11:40;;;;;;;2.10;1.20;;;;;;;17.15;75.73;98539.92;105507;1255;72514;-25
2023/07/22 03:14:07;;;;;;;2.90;1.50;;;;;;;17.15;75.70;98535.55;105550;1253;61145;-25
2023/07/22 03:16:36;;;;;;;3.80;1.90;;;;;;;16.94;76.18;98530.89;105634;1257;61180;-25
2023/07/22 03:19:03;;;;;;;6.30;1.70;;;;;;;16.76;76.93;98535.29;105578;1253;73701;-25
2023/07/22 03:21:30;;;;;;;4.30;1.00;;;;;;;16.61;77.99;98529.70;105693;1253;74828;-25
2023/07/22 03:23:58;;;;;;;3.20;1.30;;;;;;;17.02;78.07;98524.45;105666;1253;72833;-25
2023/07/22 03:26:25;;;;;;;2.20;1.30;;;;;;;17.47;76.33;98525.98;105607;1253;61082;-26
2023/07/22 03:28:52;;;;;;;3.90;1.70;;;;;;;17.40;75.88;98523.02;105666;1258;61113;-25
2023/07/22 03:31:19;;;;;;;7.50;1.80;;;;;;;17.23;76.35;98513.23;105682;1253;74456;-25
2023/07/22 03:33:46;;;;;;;3.10;1.80;;;;;;;17.02;76.86;98513.73;105630;1257;74904;-26
2023/07/22 03:36:13;;;;;;;2.70;1.70;;;;;;;16.78;77.92;98510.12;105728;1254;73193;-22
2023/07/22 03:38:40;;;;;;;2.40;1.20;;;;;;;16.56;78.87;98509.90;105653;1254;61819;-22
2023/07/22 03:41:07;;;;;;;1.80;1.60;;;;;;;17.00;79.41;98510.48;105650;1258;61094;-22
2023/07/22 03:43:34;;;;;;;2.00;1.30;;;;;;;17.44;78.03;98511.96;105536;1253;74586;-22
2023/07/22 03:46:01;;;;;;;3.00;1.90;;;;;;;17.41;77.98;98516.34;105714;1253;74088;-22
2023/07/22 03:48:28;;;;;;;4.90;1.80;;;;;;;17.23;78.66;98516.27;105585;1255;72773;-22
2023/07/22 03:50:55;;;;;;;6.40;1.60;;;;;;;17.00;79.69;98517.48;105629;1256;61160;-22
2023/07/22 03:53:39;;;;;;;;;;;;;;;16.79;80.54;98519.84;105654;1258;61247;-22
2023/07/22 03:56:06;;;;;;;4.00;1.50;;;;;;;17.12;80.64;98520.64;105743;1253;74370;-22
2023/07/22 03:58:33;;;;;;;2.60;1.30;;;;;;;17.47;79.14;98522.54;105626;1257;74338;-26
2023/07/22 04:01:01;;;;;;;2.20;1.80;;;;;;;17.43;78.42;98519.85;105622;1253;72677;-25
2023/07/22 04:03:29;;;;;;;4.70;2.10;;;;;;;17.21;79.00;98516.13;105637;1253;61141;-25
2023/07/22 04:05:56;;;;;;;2.70;1.70;;;;;;;16.97;79.91;98506.95;105640;1258;61152;-25
2023/07/22 04:08:23;;;;;;;4.00;1.40;;;;;;;16.80;81.04;98508.89;105665;1253;73711;-24
2023/07/22 04:10:53;;;;;;;2.00;1.20;;;;;;;17.21;81.55;98504.33;105612;1257;74331;-24
2023/07/22 04:13:20;;;;;;;3.90;1.50;;;;;;;17.69;80.08;98507.59;105521;1253;72563;-24
2023/07/22 04:15:47;;;;;;;4.40;1.60;;;;;;;17.72;79.49;98508.66;105636;1253;61065;-25
2023/07/22 04:18:18;;;;;;;4.50;3.20;;;;;;;17.57;79.53;98509.20;105511;1257;61107;-24
2023/07/22 04:20:45;;;;;;;4.90;4.40;;;;;;;17.33;79.65;98507.00;105650;1253;73833;-24
2023/07/22 04:23:12;;;;;;;4.00;2.70;;;;;;;17.13;80.63;98506.30;105726;1253;74139;-24
2023/07/22 04:25:40;;;;;;;5.00;3.70;;;;;;;17.47;80.94;98508.24;105710;1253;72665;-24
2023/07/22 04:28:08;;;;;;;5.70;4.80;;;;;;;17.91;79.48;98513.63;105683;1261;61219;-24
2023/07/22 04:30:39;;;;;;;7.80;5.20;;;;;;;17.92;78.82;98515.91;105658;1258;62815;-24
2023/07/22 04:33:09;;;;;;;7.00;5.30;;;;;;;17.69;78.88;98511.51;105581;1255;72642;-24
2023/07/22 04:35:38;;;;;;;7.90;6.40;;;;;;;17.34;79.63;98506.51;105675;1253;74192;-24
2023/07/22 04:38:05;;;;;;;7.10;5.40;;;;;;;17.10;81.04;98510.91;105722;1255;71604;-24
2023/07/22 04:40:32;;;;;;;5.60;4.30;;;;;;;17.46;81.72;98511.18;105684;1253;60983;-24
2023/07/22 04:42:59;;;;;;;3.90;2.30;;;;;;;17.93;80.33;98507.34;105600;1260;61161;-24
2023/07/22 04:45:27;;;;;;;2.80;2.20;;;;;;;17.98;79.70;98500.17;105739;1253;73563;-24
2023/07/22 04:47:54;;;;;;;2.70;2.10;;;;;;;17.84;79.80;98497.45;105750;1253;74445;-24
2023/07/22 04:50:22;;;;;;;3.40;1.80;;;;;;;17.60;80.47;98495.00;105538;1253;72646;-24
2023/07/22 04:52:49;;;;;;;2.90;1.30;;;;;;;17.43;81.20;98486.90;105706;1253;61962;-23
2023/07/22 04:55:16;;;;;;;3.50;1.20;;;;;;;17.81;81.16;98486.57;105455;1258;61202;-24
2023/07/22 04:57:45;;;;;;;3.00;2.10;;;;;;;18.25;79.85;98492.71;105602;1253;73858;-24
2023/07/22 05:00:14;;;;;;;3.30;2.30;;;;;;;18.30;79.17;98491.51;105655;1258;74252;-24
2023/07/22 05:02:45;;;;;;;4.00;3.20;;;;;;;18.16;79.44;98490.48;105493;1253;71329;-24
2023/07/22 05:05:13;;;;;;;4.30;2.40;;;;;;;17.95;79.38;98494.07;105667;1259;61164;-24
2023/07/22 05:07:40;;;;;;;2.50;1.90;;;;;;;17.55;80.28;98499.77;105769;1258;61188;-23
2023/07/22 05:10:11;;;;;;;2.60;1.70;;;;;;;17.27;81.48;98506.44;105709;1253;73270;-24
2023/07/22 05:12:39;;;;;;;1.80;1.70;;;;;;;17.51;81.63;98510.84;105592;1258;74904;-24
2023/07/22 05:15:06;;;;;;;1.90;1.70;;;;;;;17.68;81.05;98512.21;105330;1256;72510;-24
2023/07/22 05:17:33;;;;;;;2.80;1.70;;;;;;;17.72;81.28;98509.42;105399;1253;61083;-23
2023/07/22 05:20:00;;;;;;;3.60;1.90;;;;;;;17.56;80.60;98504.83;105528;1257;61181;-24
2023/07/22 05:22:27;;;;;;;2.60;1.80;;;;;;;17.35;81.08;98502.66;105655;1253;73816;-24
2023/07/22 05:24:55;;;;;;;1.50;1.10;;;;;;;17.14;82.48;98506.55;105715;1258;74322;-25
2023/07/22 05:27:24;;;;;;;2.80;1.60;;;;;;;17.52;82.43;98501.41;105616;1253;72591;-24
2023/07/22 05:29:50;;;;;;;4.30;1.60;;;;;;;17.98;80.00;98499.45;105676;1253;61173;-24
2023/07/22 05:32:17;;;;;;;3.30;1.40;;;;;;;17.98;79.40;98507.02;105713;1258;61174;-24
2023/07/22 05:35:04;;;;;;;;;;;;;;;17.74;79.72;98506.34;105652;1253;73824;-25
2023/07/22 05:37:32;;;;;;;3.10;1.60;;;;;;;17.47;80.52;98499.01;105427;1253;74395;-24
2023/07/22 05:40:00;;;;;;;2.50;1.10;;;;;;;17.24;80.96;98493.49;105551;1253;72673;-24
2023/07/22 05:42:28;;;;;;;1.40;1.10;;;;;;;17.58;81.42;98492.02;105613;1253;61197;-24
2023/07/22 05:44:55;;;;;;;5.90;1.30;;;;;;;17.93;80.07;98490.17;105443;1254;61114;-24
2023/07/22 05:47:22;;;;;;;2.40;1.40;;;;;;;17.93;78.97;98489.32;105673;1253;73529;-25
2023/07/22 05:49:49;;;;;;;4.30;1.50;;;;;;;17.75;79.12;98483.15;105547;1253;74486;-24
2023/07/22 05:52:17;;;;;;;1.90;1.60;;;;;;;17.55;79.83;98474.08;105614;1253;72635;-23
2023/07/22 05:54:44;;;;;;;2.20;1.20;;;;;;;17.35;80.50;98471.29;105539;1253;61929;-24
2023/07/22 05:57:11;;;;;;;3.40;1.60;;;;;;;17.72;80.86;98466.73;105656;1259;61084;-24
2023/07/22 05:59:39;;;;;;;2.70;1.80;;;;;;;18.17;78.52;98464.67;105776;1257;73252;-23
2023/07/22 06:02:08;;;;;;;3.40;2.50;;;;;;;18.15;77.36;98462.81;105772;1253;74334;-24
2023/07/22 06:04:35;;;;;;;4.10;2.40;;;;;;;17.95;77.23;98465.87;105674;1255;71680;-24
2023/07/22 06:07:02;;;;;;;8.90;6.30;;;;;;;17.67;77.39;98461.54;105703;1253;61155;-24
2023/07/22 06:09:29;;;;;;;10.10;7.00;;;;;;;17.34;78.01;98458.38;105783;1258;61166;-24
2023/07/22 06:11:56;;;;;;;5.30;3.70;;;;;;;17.07;79.58;98452.48;105773;1253;74279;-24
2023/07/22 06:14:23;;;;;;;3.00;2.20;;;;;;;17.41;79.48;98448.48;105757;1258;74401;-24
2023/07/22 06:16:50;;;;;;;1.90;1.60;;;;;;;17.75;77.17;98446.16;105739;1259;72646;-24
2023/07/22 06:19:18;;;;;;;4.50;2.30;;;;;;;17.68;77.04;98448.60;105767;1253;61131;-24
2023/07/22 06:21:45;;;;;;;2.30;1.80;;;;;;;17.47;78.04;98449.73;105609;1258;61174;-24
2023/07/22 06:24:12;;;;;;;2.10;1.70;;;;;;;17.20;78.49;98447.14;105588;1253;74271;-23
2023/07/22 06:26:39;;;;;;;3.30;1.90;;;;;;;16.94;79.10;98448.40;105605;1253;74329;-23
2023/07/22 06:29:05;;;;;;;2.40;1.50;;;;;;;16.71;80.20;98442.23;105659;1253;72729;-24
2023/07/22 06:31:32;;;;;;;2.10;1.60;;;;;;;17.09;80.05;98439.23;105423;1253;61050;-25
2023/07/22 06:34:00;;;;;;;1.90;1.50;;;;;;;17.48;78.33;98430.84;105592;1255;61052;-23
2023/07/22 06:36:28;;;;;;;2.40;1.50;;;;;;;17.46;77.80;98426.36;105632;1253;73856;-23
2023/07/22 06:38:56;;;;;;;2.50;1.70;;;;;;;17.23;77.93;98423.94;105633;1257;74255;-25
2023/07/22 06:41:24;;;;;;;2.20;1.40;;;;;;;16.92;79.26;98428.27;105678;1253;72698;-23
2023/07/22 06:43:52;;;;;;;2.70;1.50;;;;;;;16.68;80.32;98426.83;105493;1253;61105;-25
2023/07/22 06:46:19;;;;;;;1.40;1.20;;;;;;;16.47;81.54;98422.10;105535;1258;61092;-22
2023/07/22 06:48:47;;;;;;;1.40;1.30;;;;;;;16.86;81.73;98430.49;105693;1258;73882;-25
2023/07/22 06:51:14;;;;;;;1.90;1.30;;;;;;;17.19;79.80;98438.80;105466;1254;74164;-23
2023/07/22 06:53:42;;;;;;;4.70;3.00;;;;;;;17.16;79.63;98446.25;105670;1253;72456;-22
2023/07/22 06:56:09;;;;;;;5.00;3.60;;;;;;;16.93;80.10;98449.88;105575;1253;61116;-23
2023/07/22 06:58:37;;;;;;;4.00;2.70;;;;;;;16.73;81.17;98452.31;105733;1258;61132;-23
2023/07/22 07:01:03;;;;;;;2.20;1.30;;;;;;;16.58;82.48;98453.64;105744;1253;73829;-24
2023/07/22 07:03:35;;;;;;;1.60;1.30;;;;;;;16.95;81.94;98454.52;105442;1256;74233;-24
2023/07/22 07:06:03;;;;;;;1.50;1.30;;;;;;;17.40;80.54;98452.61;105724;1253;71567;-24
2023/07/22 07:08:33;;;;;;;1.60;1.30;;;;;;;17.40;79.62;98450.02;105544;1253;61151;-23
2023/07/22 07:11:02;;;;;;;4.40;3.30;;;;;;;17.26;80.14;98447.81;105580;1258;61136;-24
2023/07/22 07:13:31;;;;;;;2.80;2.00;;;;;;;17.06;81.03;98449.10;105603;1254;72654;-24
2023/07/22 07:16:23;;;;;;;3.80;1.40;;;;;;;16.84;81.40;98441.48;105670;1258;74504;-24
2023/07/22 07:18:51;;;;;;;5.40;1.60;;;;;;;17.09;81.57;98432.07;105670;1260;72514;-24
2023/07/22 07:21:19;;;;;;;1.60;1.20;;;;;;;17.26;80.88;98422.89;105536;1254;61165;-24
2023/07/22 07:23:48;;;;;;;2.70;1.50;;;;;;;17.15;81.02;98415.40;105584;1259;61097;-23
2023/07/22 07:26:15;;;;;;;1.40;1.10;;;;;;;16.99;81.50;98413.77;105810;1259;73547;-23
2023/07/22 07:28:42;;;;;;;1.50;1.40;;;;;;;16.73;82.86;98420.27;105822;1253;74373;-24
2023/07/22 07:31:10;;;;;;;1.80;1.30;;;;;;;16.61;84.51;98424.83;105761;1253;72633;-24
2023/07/22 07:33:37;;;;;;;1.40;1.20;;;;;;;17.01;84.74;98431.59;105767;1253;61158;-25
2023/07/22 07:36:04;;;;;;;3.40;1.90;;;;;;;17.29;81.66;98433.13;105688;1258;61104;-24
2023/07/22 07:38:31;;;;;;;2.90;1.60;;;;;;;17.08;82.26;98441.53;105705;1253;73800;-24
2023/07/22 07:41:01;;;;;;;2.80;1.60;;;;;;;17.01;82.73;98449.02;105818;1254;74345;-24
2023/07/22 07:43:28;;;;;;;2.40;1.70;;;;;;;16.68;83.66;98447.83;105759;1257;72606;-24
2023/07/22 07:46:22;;;;;;;5.20;1.60;;;;;;;16.48;84.98;98448.11;105737;1253;62630;-24
2023/07/22 07:48:51;;;;;;;;;;;;;;;17.07;85.07;98452.87;103864;1253;2743931;-25
2023/07/22 07:51:19;;;;;;;2.00;1.70;;;;;;;17.37;82.22;98461.96;105687;1254;73845;-24
2023/07/22 07:53:49;;;;;;;2.30;1.80;;;;;;;17.25;82.07;98458.65;105677;1258;74295;-24
2023/07/22 07:56:17;;;;;;;2.20;1.80;;;;;;;17.13;82.72;98443.60;105692;1253;72485;-24
2023/07/22 07:58:45;;;;;;;2.90;2.10;;;;;;;16.97;83.67;98429.77;105569;1253;61149;-24
2023/07/22 08:01:12;;;;;;;2.60;1.80;;;;;;;16.69;85.68;98412.00;105400;1259;61143;-24
2023/07/22 08:03:41;;;;;;;3.00;1.70;;;;;;;17.11;85.37;98398.86;105753;1253;73951;-22
2023/07/22 08:06:09;;;;;;;2.60;1.80;;;;;;;17.57;82.71;98391.33;105697;1254;74871;-24
2023/07/22 08:08:37;;;;;;;3.40;2.10;;;;;;;17.25;83.68;98393.33;105630;1256;72640;-23
2023/07/22 08:11:06;;;;;;;2.60;1.90;;;;;;;17.20;85.71;98404.33;105577;1253;61110;-24
2023/07/22 08:13:33;;;;;;;3.10;1.60;;;;;;;17.12;87.38;98413.56;105679;1259;61136;-24
2023/07/22 08:16:02;;;;;;;3.00;1.20;;;;;;;17.11;86.82;98424.12;105798;1259;71288;-24
2023/07/22 08:18:31;;;;;;;1.70;1.00;;;;;;;17.43;85.24;98433.86;105688;1261;72813;-24
2023/07/22 08:20:58;;;;;;;2.70;1.50;;;;;;;17.81;83.12;98441.96;105647;1253;72772;-21
2023/07/22 08:23:25;;;;;;;2.30;1.60;;;;;;;17.57;83.73;98446.44;105633;1253;61133;-21
2023/07/22 08:25:52;;;;;;;2.40;1.70;;;;;;;17.44;84.10;98445.77;105457;1254;61203;-24
2023/07/22 08:28:19;;;;;;;2.20;1.70;;;;;;;17.09;85.55;98446.44;105825;1253;72707;-23
2023/07/22 08:30:48;;;;;;;1.80;1.20;;;;;;;16.81;87.50;98444.11;105714;1258;74747;-23
2023/07/22 08:33:16;;;;;;;1.90;1.50;;;;;;;17.40;86.26;98443.66;105710;1254;72631;-24
2023/07/22 08:35:53;;;;;;;3.00;1.70;;;;;;;17.65;84.11;98444.58;105469;1255;61053;-21
2023/07/22 08:38:20;;;;;;;3.70;1.80;;;;;;;17.45;85.17;98446.31;105620;1259;61158;-21
2023/07/22 08:40:50;;;;;;;3.60;1.80;;;;;;;17.43;85.23;98439.09;105762;1253;72720;-21
2023/07/22 08:43:20;;;;;;;2.50;1.50;;;;;;;17.33;85.58;98439.34;105539;1261;74310;-21
2023/07/22 08:45:49;;;;;;;2.40;1.50;;;;;;;17.21;86.17;98440.52;105688;1257;72669;-21
2023/07/22 08:48:18;;;;;;;4.00;1.50;;;;;;;17.39;86.06;98442.92;105616;1253;61112;-21
2023/07/22 08:50:49;;;;;;;3.90;2.00;;;;;;;17.60;85.36;98440.60;105678;1255;61145;-22
2023/07/22 08:53:16;;;;;;;3.40;2.30;;;;;;;17.69;84.58;98438.26;105577;1253;73862;-22
2023/07/22 08:55:43;;;;;;;2.10;1.80;;;;;;;17.56;85.91;98435.59;105554;1253;74425;-22
2023/07/22 08:58:11;;;;;;;3.50;2.20;;;;;;;17.49;86.45;98438.87;105635;1253;72648;-21
2023/07/22 09:00:38;;;;;;;2.40;1.40;;;;;;;17.40;86.40;98433.54;105544;1258;61964;-22
2023/07/22 09:03:06;;;;;;;1.90;1.70;;;;;;;17.59;86.69;98433.55;105633;1261;61117;-22
2023/07/22 09:05:34;;;;;;;3.60;2.00;;;;;;;18.04;84.66;98431.39;105503;1253;73794;-22
2023/07/22 09:08:03;;;;;;;4.00;2.30;;;;;;;17.82;84.71;98436.70;105681;1256;74355;-22
2023/07/22 09:10:30;;;;;;;3.10;1.80;;;;;;;17.57;85.71;98440.59;105662;1253;72639;-23
2023/07/22 09:12:59;;;;;;;3.40;2.00;;;;;;;17.49;86.53;98436.71;105341;1253;61170;-23
2023/07/22 09:15:26;;;;;;;2.40;1.20;;;;;;;17.55;86.79;98437.00;105524;1253;61024;-23
2023/07/22 09:17:53;;;;;;;1.80;1.60;;;;;;;18.07;84.82;98430.11;105508;1253;73804;-23
2023/07/22 09:20:20;;;;;;;2.30;2.00;;;;;;;18.38;83.43;98429.91;105630;1266;74348;-23
2023/07/22 09:22:49;;;;;;;4.00;2.00;;;;;;;18.40;82.84;98427.23;105701;1254;72704;-23
2023/07/22 09:25:31;;;;;;;3.70;2.40;;;;;;;17.97;83.70;98427.17;105353;1254;61196;-23
2023/07/22 09:28:00;;;;;;;3.30;1.80;;;;;;;17.92;85.02;98432.48;105757;1258;61060;-21
2023/07/22 09:30:38;;;;;;;2.10;1.80;;;;;;;17.94;84.88;98426.09;105738;1260;74420;-22
2023/07/22 09:33:07;;;;;;;1.80;1.60;;;;;;;18.17;83.52;98422.88;105361;1258;72966;-22
2023/07/22 09:35:45;;;;;;;2.60;1.80;;;;;;;18.58;82.82;98422.91;105572;1260;72162;-22
2023/07/22 09:38:12;;;;;;;2.60;2.10;;;;;;;18.40;82.83;98424.95;105632;1259;61237;-22
2023/07/22 09:40:41;;;;;;;3.10;2.40;;;;;;;17.99;84.84;98427.36;105805;1258;61184;-21
2023/07/22 09:43:14;;;;;;;3.70;1.50;;;;;;;17.96;86.42;98430.69;105649;1258;73633;-21
2023/07/22 09:45:46;;;;;;;1.80;1.50;;;;;;;18.52;84.72;98425.38;105679;1253;74311;-22
2023/07/22 09:48:13;;;;;;;2.00;1.70;;;;;;;19.06;81.49;98424.67;105660;1259;72573;-22
2023/07/22 09:50:43;;;;;;;3.60;2.00;;;;;;;18.98;80.59;98424.46;105692;1257;61434;-22
2023/07/22 09:53:15;;;;;;;1.70;1.60;;;;;;;18.70;81.74;98426.23;105603;1258;61314;-23
2023/07/22 09:55:43;;;;;;;2.40;2.00;;;;;;;18.58;82.36;98425.58;105847;1259;72583;-21
2023/07/22 09:58:10;;;;;;;3.80;1.80;;;;;;;18.44;83.23;98429.05;105737;1253;74179;-21
2023/07/22 10:00:37;;;;;;;2.00;1.60;;;;;;;18.99;82.48;98428.56;105687;1254;72749;-20
2023/07/22 10:03:09;;;;;;;1.90;1.70;;;;;;;19.63;79.71;98431.23;105501;1260;61097;-20
2023/07/22 10:05:38;;;;;;;2.00;1.80;;;;;;;19.63;79.19;98432.37;105838;1258;61172;-21
2023/07/22 10:08:05;;;;;;;2.40;1.90;;;;;;;19.36;78.99;98431.63;105711;1260;73763;-21
2023/07/22 10:10:34;;;;;;;4.20;1.90;;;;;;;19.24;79.34;98430.68;105788;1258;74438;-21
2023/07/22 10:13:04;;;;;;;2.10;1.20;;;;;;;19.09;80.39;98435.98;105666;1258;74356;-21
2023/07/22 10:15:34;;;;;;;1.20;1.10;;;;;;;19.04;79.41;98441.06;105725;1257;61074;-22
2023/07/22 10:18:05;;;;;;;1.80;1.40;;;;;;;19.11;79.13;98440.79;105420;1259;61292;-21
2023/07/22 10:20:36;;;;;;;2.60;1.60;;;;;;;18.79;80.02;98442.69;105644;1253;74156;-22
2023/07/22 10:23:03;;;;;;;2.90;1.70;;;;;;;18.72;81.00;98447.66;105567;1259;74643;-21
2023/07/22 10:25:31;;;;;;;2.20;1.60;;;;;;;18.80;81.36;98446.50;105614;1259;73018;-22
2023/07/22 10:27:57;;;;;;;2.10;1.50;;;;;;;18.42;81.04;98442.33;105435;1254;61696;-21
2023/07/22 10:30:25;;;;;;;1.30;0.90;;;;;;;18.46;82.86;98444.80;105576;1257;61250;-22
2023/07/22 10:32:52;;;;;;;2.40;1.30;;;;;;;19.07;82.43;98443.25;105652;1253;73811;-22
2023/07/22 10:35:25;;;;;;;2.20;1.50;;;;;;;19.50;79.10;98437.04;105590;1259;74373;-21
2023/07/22 10:37:53;;;;;;;2.80;1.50;;;;;;;19.60;77.25;98434.52;105495;1259;72621;-21
2023/07/22 10:40:24;;;;;;;2.00;1.70;;;;;;;19.54;79.66;98431.48;105580;1254;61042;-22
2023/07/22 10:42:58;;;;;;;3.60;2.20;;;;;;;19.32;80.31;98430.55;105666;1260;61166;-21
2023/07/22 10:45:33;;;;;;;2.90;2.10;;;;;;;19.11;81.16;98429.13;105850;1257;73720;-21
2023/07/22 10:48:12;;;;;;;1.40;1.00;;;;;;;18.89;82.86;98430.13;105773;1259;74156;-22
2023/07/22 10:50:46;;;;;;;1.80;1.60;;;;;;;19.56;81.67;98431.52;105684;1259;72541;-22
2023/07/22 10:53:24;;;;;;;2.20;1.40;;;;;;;19.99;78.67;98435.72;105621;1259;61207;-22
2023/07/22 10:56:14;;;;;;;2.10;1.60;;;;;;;19.99;77.08;98437.99;105851;1256;61174;-22
2023/07/22 10:58:44;;;;;;;2.90;1.70;;;;;;;19.81;77.26;98440.50;105801;1256;72602;-21
2023/07/22 11:01:29;;;;;;;2.40;1.60;;;;;;;19.61;78.53;98440.45;105539;1259;74186;-22
2023/07/22 11:04:12;;;;;;;3.70;1.50;;;;;;;19.34;79.97;98439.86;105598;1254;72466;-22
2023/07/22 11:07:04;;;;;;;1.90;1.00;;;;;;;19.10;81.91;98441.70;105519;1259;61798;-22
2023/07/22 11:09:33;;;;;;;1.40;1.30;;;;;;;19.72;79.03;98442.02;105554;1254;61147;-22
2023/07/22 11:12:03;;;;;;;1.80;1.20;;;;;;;20.14;78.59;98436.74;105664;1260;73819;-22
2023/07/22 11:14:33;;;;;;;2.20;1.70;;;;;;;20.20;78.51;98442.38;105423;1258;74494;-22
2023/07/22 11:17:03;;;;;;;2.20;1.80;;;;;;;20.03;79.38;98445.89;105519;1259;72931;-22
2023/07/22 11:19:30;;;;;;;2.10;1.80;;;;;;;19.89;78.59;98449.62;105409;1261;61201;-22
2023/07/22 11:21:57;;;;;;;2.20;1.70;;;;;;;19.69;79.00;98449.27;105705;1260;61146;-22
2023/07/22 11:24:24;;;;;;;2.70;1.30;;;;;;;19.55;80.01;98452.41;105669;1265;74305;-22
2023/07/22 11:26:52;;;;;;;1.90;1.30;;;;;;;20.00;79.33;98454.40;105706;1263;74309;-22
2023/07/22 11:29:19;;;;;;;2.10;1.60;;;;;;;20.37;75.98;98452.09;105601;1258;72794;-22
2023/07/22 11:31:47;;;;;;;5.00;1.60;;;;;;;20.26;76.26;98460.02;105656;1254;61044;-22
2023/07/22 11:34:19;;;;;;;2.70;2.00;;;;;;;19.91;77.33;98460.41;105677;1256;61128;-22